sensor_id;sensor_type;location;lat;lon;timestamp;P1;durP1;ratioP1;P2;durP2;ratioP2
56343;SDS011;42245;42.058;24.700;2023-03-23T00:00:51;75.95;;;41.70;;
56343;SDS011;42245;42.058;24.700;2023-03-23T00:03:17;63.50;;;36.00;;
56343;SDS011;42245;42.058;24.700;2023-03-23T00:05:43;40.17;;;23.83;;
56343;SDS011;42245;42.058;24.700;2023-03-23T00:08:15;34.17;;;20.95;;
56343;SDS011;42245;42.058;24.700;2023-03-23T00:10:42;32.70;;;19.55;;
56343;SDS011;42245;42.058;24.700;2023-03-23T00:13:07;24.38;;;15.82;;
56343;SDS011;42245;42.058;24.700;2023-03-23T00:15:32;37.03;;;25.77;;
56343;SDS011;42245;42.058;24.700;2023-03-23T00:18:01;54.47;;;31.98;;
56343;SDS011;42245;42.058;24.700;2023-03-23T00:20:27;58.40;;;38.50;;
56343;SDS011;42245;42.058;24.700;2023-03-23T00:22:54;55.03;;;32.30;;
56343;SDS011;42245;42.058;24.700;2023-03-23T00:25:24;53.72;;;32.90;;
56343;SDS011;42245;42.058;24.700;2023-03-23T00:27:50;55.72;;;33.47;;
56343;SDS011;42245;42.058;24.700;2023-03-23T00:30:15;54.67;;;33.60;;
56343;SDS011;42245;42.058;24.700;2023-03-23T00:32:41;63.15;;;34.20;;
56343;SDS011;42245;42.058;24.700;2023-03-23T00:35:06;60.47;;;34.92;;
56343;SDS011;42245;42.058;24.700;2023-03-23T00:37:33;65.63;;;35.05;;
56343;SDS011;42245;42.058;24.700;2023-03-23T00:40:00;66.78;;;36.55;;
56343;SDS011;42245;42.058;24.700;2023-03-23T00:42:26;65.60;;;35.20;;
56343;SDS011;42245;42.058;24.700;2023-03-23T00:44:53;69.55;;;35.67;;
56343;SDS011;42245;42.058;24.700;2023-03-23T00:47:25;62.85;;;35.15;;
56343;SDS011;42245;42.058;24.700;2023-03-23T00:49:50;59.33;;;32.95;;
56343;SDS011;42245;42.058;24.700;2023-03-23T00:52:17;58.50;;;33.45;;
56343;SDS011;42245;42.058;24.700;2023-03-23T00:54:42;60.38;;;32.38;;
56343;SDS011;42245;42.058;24.700;2023-03-23T00:57:08;60.90;;;33.17;;
56343;SDS011;42245;42.058;24.700;2023-03-23T00:59:35;57.05;;;31.70;;
56343;SDS011;42245;42.058;24.700;2023-03-23T01:02:00;58.83;;;32.45;;
56343;SDS011;42245;42.058;24.700;2023-03-23T01:04:26;59.35;;;31.63;;
56343;SDS011;42245;42.058;24.700;2023-03-23T01:06:53;54.92;;;30.60;;
56343;SDS011;42245;42.058;24.700;2023-03-23T01:09:19;58.30;;;32.17;;
56343;SDS011;42245;42.058;24.700;2023-03-23T01:11:46;57.03;;;32.58;;
56343;SDS011;42245;42.058;24.700;2023-03-23T01:14:14;56.55;;;34.83;;
56343;SDS011;42245;42.058;24.700;2023-03-23T01:16:40;62.08;;;32.88;;
56343;SDS011;42245;42.058;24.700;2023-03-23T01:19:06;62.50;;;33.38;;
56343;SDS011;42245;42.058;24.700;2023-03-23T01:21:32;61.33;;;32.83;;
56343;SDS011;42245;42.058;24.700;2023-03-23T01:23:57;55.70;;;32.03;;
56343;SDS011;42245;42.058;24.700;2023-03-23T01:26:24;53.30;;;30.30;;
56343;SDS011;42245;42.058;24.700;2023-03-23T01:28:50;53.78;;;31.00;;
56343;SDS011;42245;42.058;24.700;2023-03-23T01:31:17;59.03;;;32.10;;
56343;SDS011;42245;42.058;24.700;2023-03-23T01:33:46;58.75;;;32.03;;
56343;SDS011;42245;42.058;24.700;2023-03-23T01:36:14;61.75;;;32.72;;
56343;SDS011;42245;42.058;24.700;2023-03-23T01:38:42;61.85;;;33.92;;
56343;SDS011;42245;42.058;24.700;2023-03-23T01:41:08;58.60;;;32.35;;
56343;SDS011;42245;42.058;24.700;2023-03-23T01:43:34;60.50;;;32.38;;
56343;SDS011;42245;42.058;24.700;2023-03-23T01:45:59;57.63;;;32.15;;
56343;SDS011;42245;42.058;24.700;2023-03-23T01:48:29;60.67;;;33.72;;
56343;SDS011;42245;42.058;24.700;2023-03-23T01:51:03;64.55;;;33.65;;
56343;SDS011;42245;42.058;24.700;2023-03-23T01:53:39;64.60;;;34.05;;
56343;SDS011;42245;42.058;24.700;2023-03-23T01:56:08;62.10;;;33.10;;
56343;SDS011;42245;42.058;24.700;2023-03-23T01:58:36;70.65;;;34.55;;
56343;SDS011;42245;42.058;24.700;2023-03-23T02:01:04;61.33;;;34.40;;
56343;SDS011;42245;42.058;24.700;2023-03-23T02:03:31;64.25;;;34.70;;
56343;SDS011;42245;42.058;24.700;2023-03-23T02:05:57;59.58;;;33.92;;
56343;SDS011;42245;42.058;24.700;2023-03-23T02:08:27;60.45;;;32.97;;
56343;SDS011;42245;42.058;24.700;2023-03-23T02:10:54;57.20;;;31.48;;
56343;SDS011;42245;42.058;24.700;2023-03-23T02:13:19;58.85;;;33.47;;
56343;SDS011;42245;42.058;24.700;2023-03-23T02:18:37;52.58;;;29.55;;
56343;SDS011;42245;42.058;24.700;2023-03-23T02:27:11;29.40;;;16.60;;
56343;SDS011;42245;42.058;24.700;2023-03-23T02:32:53;23.70;;;14.32;;
56343;SDS011;42245;42.058;24.700;2023-03-23T02:35:28;21.60;;;14.25;;
56343;SDS011;42245;42.058;24.700;2023-03-23T02:38:04;21.05;;;13.43;;
56343;SDS011;42245;42.058;24.700;2023-03-23T02:40:38;20.15;;;13.38;;
56343;SDS011;42245;42.058;24.700;2023-03-23T02:43:09;21.40;;;13.82;;
56343;SDS011;42245;42.058;24.700;2023-03-23T02:45:38;19.58;;;13.82;;
56343;SDS011;42245;42.058;24.700;2023-03-23T02:48:05;20.40;;;13.02;;
56343;SDS011;42245;42.058;24.700;2023-03-23T02:50:31;20.73;;;13.27;;
56343;SDS011;42245;42.058;24.700;2023-03-23T02:52:57;19.92;;;12.98;;
56343;SDS011;42245;42.058;24.700;2023-03-23T02:55:24;30.77;;;19.55;;
56343;SDS011;42245;42.058;24.700;2023-03-23T02:57:51;37.95;;;21.65;;
56343;SDS011;42245;42.058;24.700;2023-03-23T03:00:17;40.95;;;23.65;;
56343;SDS011;42245;42.058;24.700;2023-03-23T03:02:54;45.22;;;26.80;;
56343;SDS011;42245;42.058;24.700;2023-03-23T03:10:59;54.03;;;29.67;;
56343;SDS011;42245;42.058;24.700;2023-03-23T03:16:01;56.70;;;31.08;;
56343;SDS011;42245;42.058;24.700;2023-03-23T03:21:21;19.85;;;12.95;;
56343;SDS011;42245;42.058;24.700;2023-03-23T03:23:50;15.80;;;11.02;;
56343;SDS011;42245;42.058;24.700;2023-03-23T03:26:17;14.85;;;10.30;;
56343;SDS011;42245;42.058;24.700;2023-03-23T03:28:45;14.50;;;10.63;;
56343;SDS011;42245;42.058;24.700;2023-03-23T03:31:13;15.27;;;9.82;;
56343;SDS011;42245;42.058;24.700;2023-03-23T03:33:40;13.77;;;9.43;;
56343;SDS011;42245;42.058;24.700;2023-03-23T03:36:06;13.68;;;9.57;;
56343;SDS011;42245;42.058;24.700;2023-03-23T03:38:41;13.25;;;9.48;;
56343;SDS011;42245;42.058;24.700;2023-03-23T03:41:12;13.18;;;9.50;;
56343;SDS011;42245;42.058;24.700;2023-03-23T03:43:37;12.77;;;9.45;;
56343;SDS011;42245;42.058;24.700;2023-03-23T03:46:03;15.07;;;9.65;;
56343;SDS011;42245;42.058;24.700;2023-03-23T03:48:28;14.68;;;9.48;;
56343;SDS011;42245;42.058;24.700;2023-03-23T03:50:54;12.70;;;8.82;;
56343;SDS011;42245;42.058;24.700;2023-03-23T03:53:21;12.23;;;8.98;;
56343;SDS011;42245;42.058;24.700;2023-03-23T03:55:50;12.68;;;8.60;;
56343;SDS011;42245;42.058;24.700;2023-03-23T03:58:16;13.90;;;8.73;;
56343;SDS011;42245;42.058;24.700;2023-03-23T04:00:42;10.65;;;8.23;;
56343;SDS011;42245;42.058;24.700;2023-03-23T04:03:07;12.73;;;8.45;;
56343;SDS011;42245;42.058;24.700;2023-03-23T04:05:34;13.57;;;8.48;;
56343;SDS011;42245;42.058;24.700;2023-03-23T04:08:01;18.55;;;11.68;;
56343;SDS011;42245;42.058;24.700;2023-03-23T04:10:27;24.60;;;15.10;;
56343;SDS011;42245;42.058;24.700;2023-03-23T04:12:54;32.78;;;20.38;;
56343;SDS011;42245;42.058;24.700;2023-03-23T04:15:20;44.72;;;26.17;;
56343;SDS011;42245;42.058;24.700;2023-03-23T04:17:45;47.13;;;27.48;;
56343;SDS011;42245;42.058;24.700;2023-03-23T04:20:10;48.72;;;27.20;;
56343;SDS011;42245;42.058;24.700;2023-03-23T04:22:46;49.75;;;29.35;;
56343;SDS011;42245;42.058;24.700;2023-03-23T04:25:14;51.63;;;29.98;;
56343;SDS011;42245;42.058;24.700;2023-03-23T04:27:42;50.58;;;29.00;;
56343;SDS011;42245;42.058;24.700;2023-03-23T04:30:11;37.42;;;21.98;;
56343;SDS011;42245;42.058;24.700;2023-03-23T04:32:39;23.48;;;14.20;;
56343;SDS011;42245;42.058;24.700;2023-03-23T04:35:09;15.15;;;8.82;;
56343;SDS011;42245;42.058;24.700;2023-03-23T04:37:36;12.30;;;8.40;;
56343;SDS011;42245;42.058;24.700;2023-03-23T04:40:02;11.00;;;7.68;;
56343;SDS011;42245;42.058;24.700;2023-03-23T04:42:32;14.13;;;7.72;;
56343;SDS011;42245;42.058;24.700;2023-03-23T04:44:57;11.10;;;8.05;;
56343;SDS011;42245;42.058;24.700;2023-03-23T04:47:23;10.30;;;7.38;;
56343;SDS011;42245;42.058;24.700;2023-03-23T04:49:50;10.82;;;7.22;;
56343;SDS011;42245;42.058;24.700;2023-03-23T04:52:16;14.68;;;7.43;;
56343;SDS011;42245;42.058;24.700;2023-03-23T04:54:42;10.10;;;7.55;;
56343;SDS011;42245;42.058;24.700;2023-03-23T04:57:09;9.88;;;7.20;;
56343;SDS011;42245;42.058;24.700;2023-03-23T04:59:34;10.13;;;7.88;;
56343;SDS011;42245;42.058;24.700;2023-03-23T05:02:00;10.05;;;7.60;;
56343;SDS011;42245;42.058;24.700;2023-03-23T05:04:26;10.18;;;8.00;;
56343;SDS011;42245;42.058;24.700;2023-03-23T05:06:51;8.38;;;6.97;;
56343;SDS011;42245;42.058;24.700;2023-03-23T05:09:18;9.65;;;6.93;;
56343;SDS011;42245;42.058;24.700;2023-03-23T05:11:44;10.18;;;6.93;;
56343;SDS011;42245;42.058;24.700;2023-03-23T05:14:10;9.15;;;6.93;;
56343;SDS011;42245;42.058;24.700;2023-03-23T05:16:35;9.82;;;6.63;;
56343;SDS011;42245;42.058;24.700;2023-03-23T05:19:02;11.32;;;7.45;;
56343;SDS011;42245;42.058;24.700;2023-03-23T05:21:29;11.05;;;6.97;;
56343;SDS011;42245;42.058;24.700;2023-03-23T05:23:55;9.95;;;6.53;;
56343;SDS011;42245;42.058;24.700;2023-03-23T05:26:21;9.60;;;7.53;;
56343;SDS011;42245;42.058;24.700;2023-03-23T05:28:46;9.35;;;6.60;;
56343;SDS011;42245;42.058;24.700;2023-03-23T05:31:13;9.63;;;6.88;;
56343;SDS011;42245;42.058;24.700;2023-03-23T05:33:38;7.90;;;6.07;;
56343;SDS011;42245;42.058;24.700;2023-03-23T05:36:04;9.13;;;6.10;;
56343;SDS011;42245;42.058;24.700;2023-03-23T05:38:31;9.80;;;7.15;;
56343;SDS011;42245;42.058;24.700;2023-03-23T05:41:00;9.32;;;6.65;;
56343;SDS011;42245;42.058;24.700;2023-03-23T05:43:26;8.20;;;6.32;;
56343;SDS011;42245;42.058;24.700;2023-03-23T05:45:51;12.20;;;6.68;;
56343;SDS011;42245;42.058;24.700;2023-03-23T05:48:17;7.93;;;5.97;;
56343;SDS011;42245;42.058;24.700;2023-03-23T05:50:42;10.45;;;6.65;;
56343;SDS011;42245;42.058;24.700;2023-03-23T05:53:07;8.00;;;6.32;;
56343;SDS011;42245;42.058;24.700;2023-03-23T05:55:33;8.55;;;6.38;;
56343;SDS011;42245;42.058;24.700;2023-03-23T05:57:59;11.57;;;7.40;;
56343;SDS011;42245;42.058;24.700;2023-03-23T06:00:25;8.25;;;6.55;;
56343;SDS011;42245;42.058;24.700;2023-03-23T06:02:54;8.90;;;6.68;;
56343;SDS011;42245;42.058;24.700;2023-03-23T06:05:21;10.18;;;7.47;;
56343;SDS011;42245;42.058;24.700;2023-03-23T06:07:47;33.05;;;20.70;;
56343;SDS011;42245;42.058;24.700;2023-03-23T06:10:13;43.50;;;25.90;;
56343;SDS011;42245;42.058;24.700;2023-03-23T06:12:39;49.17;;;29.45;;
56343;SDS011;42245;42.058;24.700;2023-03-23T06:15:06;64.40;;;40.35;;
56343;SDS011;42245;42.058;24.700;2023-03-23T06:17:33;62.97;;;39.40;;
56343;SDS011;42245;42.058;24.700;2023-03-23T06:19:59;50.40;;;30.65;;
56343;SDS011;42245;42.058;24.700;2023-03-23T06:22:24;54.75;;;30.90;;
56343;SDS011;42245;42.058;24.700;2023-03-23T06:24:50;51.50;;;31.05;;
56343;SDS011;42245;42.058;24.700;2023-03-23T06:27:15;53.17;;;34.95;;
56343;SDS011;42245;42.058;24.700;2023-03-23T06:29:42;60.35;;;36.20;;
56343;SDS011;42245;42.058;24.700;2023-03-23T06:32:09;59.65;;;36.35;;
56343;SDS011;42245;42.058;24.700;2023-03-23T06:34:35;60.45;;;35.17;;
56343;SDS011;42245;42.058;24.700;2023-03-23T06:37:01;58.53;;;35.67;;
56343;SDS011;42245;42.058;24.700;2023-03-23T06:39:27;55.95;;;33.83;;
56343;SDS011;42245;42.058;24.700;2023-03-23T06:41:52;59.38;;;32.17;;
56343;SDS011;42245;42.058;24.700;2023-03-23T06:44:18;57.90;;;35.58;;
56343;SDS011;42245;42.058;24.700;2023-03-23T06:46:43;60.67;;;36.22;;
56343;SDS011;42245;42.058;24.700;2023-03-23T06:49:09;52.63;;;33.40;;
56343;SDS011;42245;42.058;24.700;2023-03-23T06:51:35;57.05;;;34.58;;
56343;SDS011;42245;42.058;24.700;2023-03-23T06:54:01;52.15;;;32.47;;
56343;SDS011;42245;42.058;24.700;2023-03-23T06:56:26;37.70;;;25.10;;
56343;SDS011;42245;42.058;24.700;2023-03-23T06:58:52;47.22;;;31.00;;
56343;SDS011;42245;42.058;24.700;2023-03-23T07:01:17;47.35;;;30.02;;
56343;SDS011;42245;42.058;24.700;2023-03-23T07:03:43;35.00;;;23.40;;
56343;SDS011;42245;42.058;24.700;2023-03-23T07:06:09;11.25;;;8.55;;
56343;SDS011;42245;42.058;24.700;2023-03-23T07:08:35;15.77;;;10.50;;
56343;SDS011;42245;42.058;24.700;2023-03-23T07:11:01;29.60;;;18.60;;
56343;SDS011;42245;42.058;24.700;2023-03-23T07:13:27;22.40;;;15.35;;
56343;SDS011;42245;42.058;24.700;2023-03-23T07:15:52;14.98;;;10.85;;
56343;SDS011;42245;42.058;24.700;2023-03-23T07:18:18;31.98;;;21.75;;
56343;SDS011;42245;42.058;24.700;2023-03-23T07:20:46;40.38;;;26.67;;
56343;SDS011;42245;42.058;24.700;2023-03-23T07:23:13;44.85;;;27.35;;
56343;SDS011;42245;42.058;24.700;2023-03-23T07:25:38;52.75;;;28.25;;
56343;SDS011;42245;42.058;24.700;2023-03-23T07:28:04;40.15;;;25.50;;
56343;SDS011;42245;42.058;24.700;2023-03-23T07:30:30;38.88;;;24.52;;
56343;SDS011;42245;42.058;24.700;2023-03-23T07:32:55;35.88;;;23.13;;
56343;SDS011;42245;42.058;24.700;2023-03-23T07:35:21;37.08;;;24.10;;
56343;SDS011;42245;42.058;24.700;2023-03-23T07:37:47;34.38;;;22.05;;
56343;SDS011;42245;42.058;24.700;2023-03-23T07:40:14;32.75;;;21.63;;
56343;SDS011;42245;42.058;24.700;2023-03-23T07:42:41;33.60;;;21.73;;
56343;SDS011;42245;42.058;24.700;2023-03-23T07:45:07;33.03;;;22.80;;
56343;SDS011;42245;42.058;24.700;2023-03-23T07:47:39;36.20;;;24.67;;
56343;SDS011;42245;42.058;24.700;2023-03-23T07:50:05;33.20;;;23.98;;
56343;SDS011;42245;42.058;24.700;2023-03-23T07:52:32;35.65;;;23.50;;
56343;SDS011;42245;42.058;24.700;2023-03-23T07:54:59;35.20;;;22.92;;
56343;SDS011;42245;42.058;24.700;2023-03-23T07:57:26;30.95;;;20.52;;
56343;SDS011;42245;42.058;24.700;2023-03-23T07:59:52;33.35;;;22.58;;
56343;SDS011;42245;42.058;24.700;2023-03-23T08:02:17;33.13;;;21.83;;
56343;SDS011;42245;42.058;24.700;2023-03-23T08:04:43;30.73;;;21.52;;
56343;SDS011;42245;42.058;24.700;2023-03-23T08:07:09;31.35;;;20.95;;
56343;SDS011;42245;42.058;24.700;2023-03-23T08:09:37;33.75;;;23.25;;
56343;SDS011;42245;42.058;24.700;2023-03-23T08:12:03;33.65;;;22.73;;
56343;SDS011;42245;42.058;24.700;2023-03-23T08:14:29;32.08;;;20.95;;
56343;SDS011;42245;42.058;24.700;2023-03-23T08:16:55;33.58;;;21.17;;
56343;SDS011;42245;42.058;24.700;2023-03-23T08:19:21;29.00;;;20.70;;
56343;SDS011;42245;42.058;24.700;2023-03-23T08:21:47;32.45;;;21.20;;
56343;SDS011;42245;42.058;24.700;2023-03-23T08:24:13;29.13;;;19.92;;
56343;SDS011;42245;42.058;24.700;2023-03-23T08:26:39;28.25;;;21.60;;
56343;SDS011;42245;42.058;24.700;2023-03-23T08:29:05;34.55;;;22.67;;
56343;SDS011;42245;42.058;24.700;2023-03-23T08:31:31;32.33;;;20.52;;
56343;SDS011;42245;42.058;24.700;2023-03-23T08:33:58;30.25;;;20.88;;
56343;SDS011;42245;42.058;24.700;2023-03-23T08:36:23;28.83;;;19.95;;
56343;SDS011;42245;42.058;24.700;2023-03-23T08:38:49;31.83;;;21.58;;
56343;SDS011;42245;42.058;24.700;2023-03-23T08:41:17;29.92;;;20.33;;
56343;SDS011;42245;42.058;24.700;2023-03-23T08:43:42;27.00;;;18.05;;
56343;SDS011;42245;42.058;24.700;2023-03-23T08:46:08;28.40;;;19.52;;
56343;SDS011;42245;42.058;24.700;2023-03-23T08:48:35;30.15;;;19.75;;
56343;SDS011;42245;42.058;24.700;2023-03-23T08:51:02;27.15;;;18.23;;
56343;SDS011;42245;42.058;24.700;2023-03-23T08:53:28;24.15;;;16.42;;
56343;SDS011;42245;42.058;24.700;2023-03-23T08:55:56;26.63;;;19.35;;
56343;SDS011;42245;42.058;24.700;2023-03-23T08:58:28;28.65;;;19.30;;
56343;SDS011;42245;42.058;24.700;2023-03-23T09:00:54;27.92;;;18.42;;
56343;SDS011;42245;42.058;24.700;2023-03-23T09:03:19;24.85;;;18.13;;
56343;SDS011;42245;42.058;24.700;2023-03-23T09:05:45;46.05;;;34.70;;
56343;SDS011;42245;42.058;24.700;2023-03-23T09:08:11;26.65;;;17.73;;
56343;SDS011;42245;42.058;24.700;2023-03-23T09:10:37;24.48;;;18.80;;
56343;SDS011;42245;42.058;24.700;2023-03-23T09:13:04;19.45;;;14.77;;
56343;SDS011;42245;42.058;24.700;2023-03-23T09:15:30;21.38;;;15.13;;
56343;SDS011;42245;42.058;24.700;2023-03-23T09:17:56;18.38;;;14.43;;
56343;SDS011;42245;42.058;24.700;2023-03-23T09:20:23;23.20;;;15.48;;
56343;SDS011;42245;42.058;24.700;2023-03-23T09:22:52;13.73;;;10.25;;
56343;SDS011;42245;42.058;24.700;2023-03-23T09:25:20;18.15;;;12.73;;
56343;SDS011;42245;42.058;24.700;2023-03-23T09:27:50;18.48;;;12.82;;
56343;SDS011;42245;42.058;24.700;2023-03-23T09:30:18;16.15;;;11.90;;
56343;SDS011;42245;42.058;24.700;2023-03-23T09:32:45;15.05;;;12.23;;
56343;SDS011;42245;42.058;24.700;2023-03-23T09:35:13;16.33;;;12.35;;
56343;SDS011;42245;42.058;24.700;2023-03-23T09:37:39;12.95;;;10.10;;
56343;SDS011;42245;42.058;24.700;2023-03-23T09:40:06;11.68;;;8.93;;
56343;SDS011;42245;42.058;24.700;2023-03-23T09:45:13;9.98;;;7.88;;
56343;SDS011;42245;42.058;24.700;2023-03-23T09:47:49;8.90;;;7.63;;
56343;SDS011;42245;42.058;24.700;2023-03-23T09:50:36;9.90;;;7.85;;
56343;SDS011;42245;42.058;24.700;2023-03-23T09:53:10;14.25;;;7.68;;
56343;SDS011;42245;42.058;24.700;2023-03-23T09:55:48;9.95;;;7.63;;
56343;SDS011;42245;42.058;24.700;2023-03-23T10:03:41;8.25;;;6.47;;
56343;SDS011;42245;42.058;24.700;2023-03-23T10:06:12;6.80;;;6.00;;
56343;SDS011;42245;42.058;24.700;2023-03-23T10:08:45;7.07;;;5.80;;
56343;SDS011;42245;42.058;24.700;2023-03-23T10:14:11;10.70;;;6.40;;
56343;SDS011;42245;42.058;24.700;2023-03-23T10:23:23;14.63;;;10.80;;
56343;SDS011;42245;42.058;24.700;2023-03-23T10:25:46;25.92;;;17.60;;
56343;SDS011;42245;42.058;24.700;2023-03-23T10:28:17;24.45;;;15.25;;
56343;SDS011;42245;42.058;24.700;2023-03-23T10:30:46;20.92;;;14.25;;
56343;SDS011;42245;42.058;24.700;2023-03-23T10:33:29;17.55;;;12.38;;
56343;SDS011;42245;42.058;24.700;2023-03-23T10:36:06;15.70;;;11.15;;
56343;SDS011;42245;42.058;24.700;2023-03-23T10:38:34;14.02;;;10.95;;
56343;SDS011;42245;42.058;24.700;2023-03-23T10:41:13;10.98;;;8.68;;
56343;SDS011;42245;42.058;24.700;2023-03-23T10:43:42;14.40;;;10.23;;
56343;SDS011;42245;42.058;24.700;2023-03-23T10:49:07;12.60;;;8.93;;
56343;SDS011;42245;42.058;24.700;2023-03-23T10:51:37;11.38;;;8.50;;
56343;SDS011;42245;42.058;24.700;2023-03-23T10:54:05;10.23;;;8.07;;
56343;SDS011;42245;42.058;24.700;2023-03-23T10:56:38;14.98;;;9.45;;
56343;SDS011;42245;42.058;24.700;2023-03-23T10:59:29;13.23;;;10.25;;
56343;SDS011;42245;42.058;24.700;2023-03-23T11:01:58;14.77;;;10.95;;
56343;SDS011;42245;42.058;24.700;2023-03-23T11:04:28;16.95;;;10.23;;
56343;SDS011;42245;42.058;24.700;2023-03-23T11:06:57;14.00;;;9.73;;
56343;SDS011;42245;42.058;24.700;2023-03-23T11:09:37;14.40;;;10.10;;
56343;SDS011;42245;42.058;24.700;2023-03-23T11:12:04;19.70;;;10.98;;
56343;SDS011;42245;42.058;24.700;2023-03-23T11:14:41;15.38;;;11.85;;
56343;SDS011;42245;42.058;24.700;2023-03-23T11:17:25;14.18;;;11.02;;
56343;SDS011;42245;42.058;24.700;2023-03-23T11:19:52;15.35;;;10.93;;
56343;SDS011;42245;42.058;24.700;2023-03-23T11:22:29;15.63;;;11.88;;
56343;SDS011;42245;42.058;24.700;2023-03-23T11:25:01;17.40;;;11.05;;
56343;SDS011;42245;42.058;24.700;2023-03-23T11:27:28;14.73;;;10.68;;
56343;SDS011;42245;42.058;24.700;2023-03-23T11:29:55;12.80;;;10.25;;
56343;SDS011;42245;42.058;24.700;2023-03-23T11:32:42;13.90;;;10.00;;
56343;SDS011;42245;42.058;24.700;2023-03-23T11:35:17;15.07;;;9.13;;
56343;SDS011;42245;42.058;24.700;2023-03-23T11:40:22;11.30;;;8.18;;
56343;SDS011;42245;42.058;24.700;2023-03-23T11:42:56;11.93;;;8.55;;
56343;SDS011;42245;42.058;24.700;2023-03-23T11:48:44;10.10;;;7.90;;
56343;SDS011;42245;42.058;24.700;2023-03-23T11:51:17;14.30;;;8.80;;
56343;SDS011;42245;42.058;24.700;2023-03-23T11:53:58;17.38;;;9.23;;
56343;SDS011;42245;42.058;24.700;2023-03-23T11:56:38;23.60;;;10.45;;
56343;SDS011;42245;42.058;24.700;2023-03-23T11:59:39;19.60;;;11.57;;
56343;SDS011;42245;42.058;24.700;2023-03-23T12:34:06;14.75;;;10.35;;
56343;SDS011;42245;42.058;24.700;2023-03-23T12:44:47;18.65;;;10.68;;
56343;SDS011;42245;42.058;24.700;2023-03-23T12:47:32;16.50;;;10.68;;
56343;SDS011;42245;42.058;24.700;2023-03-23T12:50:03;13.45;;;10.43;;
56343;SDS011;42245;42.058;24.700;2023-03-23T12:58:13;16.90;;;10.95;;
56343;SDS011;42245;42.058;24.700;2023-03-23T13:08:36;15.48;;;10.38;;
56343;SDS011;42245;42.058;24.700;2023-03-23T13:11:05;15.68;;;11.05;;
56343;SDS011;42245;42.058;24.700;2023-03-23T13:13:47;15.18;;;10.00;;
56343;SDS011;42245;42.058;24.700;2023-03-23T13:21:58;13.70;;;9.85;;
56343;SDS011;42245;42.058;24.700;2023-03-23T13:24:31;12.65;;;9.80;;
56343;SDS011;42245;42.058;24.700;2023-03-23T13:27:00;14.68;;;9.15;;
56343;SDS011;42245;42.058;24.700;2023-03-23T13:29:26;14.05;;;9.43;;
56343;SDS011;42245;42.058;24.700;2023-03-23T13:31:52;15.02;;;9.75;;
56343;SDS011;42245;42.058;24.700;2023-03-23T13:34:30;12.85;;;8.70;;
56343;SDS011;42245;42.058;24.700;2023-03-23T13:36:57;12.95;;;7.97;;
56343;SDS011;42245;42.058;24.700;2023-03-23T13:39:25;10.32;;;7.80;;
56343;SDS011;42245;42.058;24.700;2023-03-23T13:53:31;12.57;;;8.60;;
56343;SDS011;42245;42.058;24.700;2023-03-23T13:57:56;10.93;;;8.43;;
56343;SDS011;42245;42.058;24.700;2023-03-23T14:11:09;12.32;;;8.80;;
56343;SDS011;42245;42.058;24.700;2023-03-23T14:13:41;12.38;;;8.48;;
56343;SDS011;42245;42.058;24.700;2023-03-23T14:16:15;12.80;;;8.73;;
56343;SDS011;42245;42.058;24.700;2023-03-23T14:19:01;11.77;;;8.43;;
56343;SDS011;42245;42.058;24.700;2023-03-23T14:23:53;10.80;;;8.10;;
56343;SDS011;42245;42.058;24.700;2023-03-23T14:26:21;10.52;;;8.18;;
56343;SDS011;42245;42.058;24.700;2023-03-23T14:28:49;15.77;;;9.13;;
56343;SDS011;42245;42.058;24.700;2023-03-23T14:31:24;13.20;;;8.20;;
56343;SDS011;42245;42.058;24.700;2023-03-23T14:33:51;12.02;;;9.73;;
56343;SDS011;42245;42.058;24.700;2023-03-23T14:36:23;14.02;;;8.35;;
56343;SDS011;42245;42.058;24.700;2023-03-23T14:38:56;10.68;;;7.75;;
56343;SDS011;42245;42.058;24.700;2023-03-23T14:41:43;11.05;;;8.35;;
56343;SDS011;42245;42.058;24.700;2023-03-23T14:44:11;10.65;;;7.60;;
56343;SDS011;42245;42.058;24.700;2023-03-23T14:46:40;10.88;;;7.90;;
56343;SDS011;42245;42.058;24.700;2023-03-23T14:49:07;10.35;;;7.60;;
56343;SDS011;42245;42.058;24.700;2023-03-23T14:51:32;11.88;;;7.88;;
56343;SDS011;42245;42.058;24.700;2023-03-23T14:53:58;10.07;;;7.80;;
56343;SDS011;42245;42.058;24.700;2023-03-23T14:56:32;11.88;;;8.07;;
56343;SDS011;42245;42.058;24.700;2023-03-23T14:59:02;10.27;;;7.43;;
56343;SDS011;42245;42.058;24.700;2023-03-23T15:01:33;9.70;;;7.28;;
56343;SDS011;42245;42.058;24.700;2023-03-23T15:06:31;11.30;;;7.15;;
56343;SDS011;42245;42.058;24.700;2023-03-23T15:08:59;10.48;;;7.50;;
56343;SDS011;42245;42.058;24.700;2023-03-23T15:11:35;9.40;;;6.82;;
56343;SDS011;42245;42.058;24.700;2023-03-23T15:14:07;9.50;;;6.75;;
56343;SDS011;42245;42.058;24.700;2023-03-23T15:16:38;12.23;;;6.57;;
56343;SDS011;42245;42.058;24.700;2023-03-23T15:19:16;10.40;;;7.15;;
56343;SDS011;42245;42.058;24.700;2023-03-23T15:22:05;8.93;;;6.90;;
56343;SDS011;42245;42.058;24.700;2023-03-23T15:24:43;9.07;;;6.70;;
56343;SDS011;42245;42.058;24.700;2023-03-23T15:29:53;8.40;;;6.65;;
56343;SDS011;42245;42.058;24.700;2023-03-23T15:34:49;11.75;;;7.40;;
56343;SDS011;42245;42.058;24.700;2023-03-23T15:37:19;10.10;;;7.03;;
56343;SDS011;42245;42.058;24.700;2023-03-23T15:39:57;8.60;;;6.18;;
56343;SDS011;42245;42.058;24.700;2023-03-23T15:47:44;8.13;;;6.53;;
56343;SDS011;42245;42.058;24.700;2023-03-23T15:50:12;9.70;;;6.85;;
56343;SDS011;42245;42.058;24.700;2023-03-23T15:52:41;9.40;;;6.65;;
56343;SDS011;42245;42.058;24.700;2023-03-23T15:58:07;7.75;;;6.10;;
56343;SDS011;42245;42.058;24.700;2023-03-23T16:00:35;8.98;;;6.13;;
56343;SDS011;42245;42.058;24.700;2023-03-23T16:03:01;7.50;;;5.95;;
56343;SDS011;42245;42.058;24.700;2023-03-23T16:05:29;13.15;;;8.95;;
56343;SDS011;42245;42.058;24.700;2023-03-23T16:07:55;40.60;;;22.25;;
56343;SDS011;42245;42.058;24.700;2023-03-23T16:10:22;12.88;;;8.40;;
56343;SDS011;42245;42.058;24.700;2023-03-23T16:12:48;14.52;;;9.45;;
56343;SDS011;42245;42.058;24.700;2023-03-23T16:15:14;8.82;;;6.93;;
56343;SDS011;42245;42.058;24.700;2023-03-23T16:17:40;8.10;;;5.85;;
56343;SDS011;42245;42.058;24.700;2023-03-23T16:20:24;7.15;;;5.63;;
56343;SDS011;42245;42.058;24.700;2023-03-23T16:22:50;7.20;;;5.43;;
56343;SDS011;42245;42.058;24.700;2023-03-23T16:25:16;6.60;;;5.22;;
56343;SDS011;42245;42.058;24.700;2023-03-23T16:27:43;10.60;;;6.63;;
56343;SDS011;42245;42.058;24.700;2023-03-23T16:30:15;27.27;;;17.77;;
56343;SDS011;42245;42.058;24.700;2023-03-23T16:32:50;14.18;;;9.38;;
56343;SDS011;42245;42.058;24.700;2023-03-23T16:35:16;13.82;;;9.77;;
56343;SDS011;42245;42.058;24.700;2023-03-23T16:37:48;18.75;;;10.02;;
56343;SDS011;42245;42.058;24.700;2023-03-23T16:40:16;15.63;;;9.82;;
56343;SDS011;42245;42.058;24.700;2023-03-23T16:42:42;7.93;;;4.80;;
56343;SDS011;42245;42.058;24.700;2023-03-23T16:45:08;21.55;;;14.32;;
56343;SDS011;42245;42.058;24.700;2023-03-23T16:47:34;21.70;;;8.55;;
56343;SDS011;42245;42.058;24.700;2023-03-23T16:50:00;5.35;;;4.28;;
56343;SDS011;42245;42.058;24.700;2023-03-23T16:52:25;9.25;;;6.07;;
56343;SDS011;42245;42.058;24.700;2023-03-23T16:54:51;10.02;;;5.40;;